Map

Track Data

SID SEASON NUMBER BASIN SUBBASIN NAME ISO_TIME NATURE LAT LON WMO_WIND WMO_PRES WMO_AGENCY TRACK_TYPE DIST2LAND LANDFALL IFLAG USA_AGENCY USA_ATCF_ID USA_LAT USA_LON USA_RECORD USA_STATUS USA_WIND USA_PRES USA_SSHS USA_R34_NE USA_R34_SE USA_R34_SW USA_R34_NW USA_R50_NE USA_R50_SE USA_R50_SW USA_R50_NW USA_R64_NE USA_R64_SE USA_R64_SW USA_R64_NW USA_POCI USA_ROCI USA_RMW USA_EYE TOKYO_LAT TOKYO_LON TOKYO_GRADE TOKYO_WIND TOKYO_PRES TOKYO_R50_DIR TOKYO_R50_LONG TOKYO_R50_SHORT TOKYO_R30_DIR TOKYO_R30_LONG TOKYO_R30_SHORT TOKYO_LAND CMA_LAT CMA_LON CMA_CAT CMA_WIND CMA_PRES HKO_LAT HKO_LON HKO_CAT HKO_WIND HKO_PRES NEWDELHI_LAT NEWDELHI_LON NEWDELHI_GRADE NEWDELHI_WIND NEWDELHI_PRES NEWDELHI_CI NEWDELHI_DP NEWDELHI_POCI REUNION_LAT REUNION_LON REUNION_TYPE REUNION_WIND REUNION_PRES REUNION_TNUM REUNION_CI REUNION_RMW REUNION_R34_NE REUNION_R34_SE REUNION_R34_SW REUNION_R34_NW REUNION_R50_NE REUNION_R50_SE REUNION_R50_SW REUNION_R50_NW REUNION_R64_NE REUNION_R64_SE REUNION_R64_SW REUNION_R64_NW BOM_LAT BOM_LON BOM_TYPE BOM_WIND BOM_PRES BOM_TNUM BOM_CI BOM_RMW BOM_R34_NE BOM_R34_SE BOM_R34_SW BOM_R34_NW BOM_R50_NE BOM_R50_SE BOM_R50_SW BOM_R50_NW BOM_R64_NE BOM_R64_SE BOM_R64_SW BOM_R64_NW BOM_ROCI BOM_POCI BOM_EYE BOM_POS_METHOD BOM_PRES_METHOD NADI_LAT NADI_LON NADI_CAT NADI_WIND NADI_PRES WELLINGTON_LAT WELLINGTON_LON WELLINGTON_WIND WELLINGTON_PRES DS824_LAT DS824_LON DS824_STAGE DS824_WIND DS824_PRES TD9636_LAT TD9636_LON TD9636_STAGE TD9636_WIND TD9636_PRES TD9635_LAT TD9635_LON TD9635_WIND TD9635_PRES TD9635_ROCI NEUMANN_LAT NEUMANN_LON NEUMANN_CLASS NEUMANN_WIND NEUMANN_PRES MLC_LAT MLC_LON MLC_CLASS MLC_WIND MLC_PRES USA_GUST BOM_GUST BOM_GUST_PER REUNION_GUST REUNION_GUST_PER USA_SEAHGT USA_SEARAD_NE USA_SEARAD_SE USA_SEARAD_SW USA_SEARAD_NW STORM_SPEED STORM_DIR
1905011S10048 1905 1 SI MM NOT_NAMED 1905-01-11 00:00:00 TS -9.50000 48.1000 main 315 286 _________O____ -1 -9.50000 48.1000 TC 13 222
1905011S10048 1905 1 SI MM NOT_NAMED 1905-01-11 03:00:00 TS -9.98763 47.6502 main 286 281 _________P____ -1 -9.98763 47.6502 TC 13 222
1905011S10048 1905 1 SI MM NOT_NAMED 1905-01-11 06:00:00 TS -10.5000 47.2000 main 281 273 _________O____ -1 -10.5000 47.2000 TC 14 220
1905011S10048 1905 1 SI MM NOT_NAMED 1905-01-11 09:00:00 TS -11.0499 46.7499 main 283 271 _________P____ -1 -11.0499 46.7499 TC 14 219
1905011S10048 1905 1 SI MM NOT_NAMED 1905-01-11 12:00:00 TS -11.6000 46.3000 main 290 280 _________O____ -1 -11.6000 46.3000 TC 14 220
1905011S10048 1905 1 SI MM NOT_NAMED 1905-01-11 15:00:00 TS -12.1075 45.8424 main 289 282 _________P____ -1 -12.1075 45.8424 TC 13 221
1905011S10048 1905 1 SI MM NOT_NAMED 1905-01-11 18:00:00 TS -12.6000 45.4000 main 297 297 _________O____ -1 -12.6000 45.4000 TC 14 220
1905011S10048 1905 1 SI MM NOT_NAMED 1905-01-11 21:00:00 TS -13.1450 44.9552 main 309 273 _________P____ -1 -13.1450 44.9552 TC 13 218
1905011S10048 1905 1 SI MM NOT_NAMED 1905-01-12 00:00:00 TS -13.6000 44.6000 main 273 254 _________O____ -1 -13.6000 44.6000 TC 9 217
1905011S10048 1905 1 SI MM NOT_NAMED 1905-01-12 03:00:00 TS -13.8524 44.4122 main 246 239 _________P____ -1 -13.8524 44.4122 TC 5 216
1905011S10048 1905 1 SI MM NOT_NAMED 1905-01-12 06:00:00 TS -14.0000 44.3000 main 239 229 _________O____ -1 -14.0000 44.3000 TC 4 221
1905011S10048 1905 1 SI MM NOT_NAMED 1905-01-12 09:00:00 TS -14.1575 44.1425 main 228 223 _________P____ -1 -14.1575 44.1425 TC 4 224
1905011S10048 1905 1 SI MM NOT_NAMED 1905-01-12 12:00:00 TS -14.3000 44.0000 main 223 214 _________O____ -1 -14.3000 44.0000 TC 4 220
1905011S10048 1905 1 SI MM NOT_NAMED 1905-01-12 15:00:00 TS -14.4425 43.8925 main 219 200 _________P____ -1 -14.4425 43.8925 TC 4 213
1905011S10048 1905 1 SI MM NOT_NAMED 1905-01-12 18:00:00 TS -14.6000 43.8000 main 200 190 _________O____ -1 -14.6000 43.8000 TC 3 210
1905011S10048 1905 1 SI MM NOT_NAMED 1905-01-12 21:00:00 TS -14.7400 43.7148 main 194 168 _________P____ -1 -14.7400 43.7148 TC 4 206
1905011S10048 1905 1 SI MM NOT_NAMED 1905-01-13 00:00:00 TS -15.0000 43.6000 main 168 139 _________O____ -1 -15.0000 43.6000 TC 8 202
1905011S10048 1905 1 SI MM NOT_NAMED 1905-01-13 03:00:00 TS -15.4976 43.3928 main 139 125 _________P____ -1 -15.4976 43.3928 TC 12 199
1905011S10048 1905 1 SI MM NOT_NAMED 1905-01-13 06:00:00 TS -16.1000 43.2000 main 130 125 _________O____ -1 -16.1000 43.2000 TC 12 193
1905011S10048 1905 1 SI MM NOT_NAMED 1905-01-13 09:00:00 TS -16.6650 43.1124 main 120 91 _________P____ -1 -16.6650 43.1124 TC 11 185
1905011S10048 1905 1 SI MM NOT_NAMED 1905-01-13 12:00:00 TS -17.2000 43.1000 main 91 84 _________O____ -1 -17.2000 43.1000 TC 10 179
1905011S10048 1905 1 SI MM NOT_NAMED 1905-01-13 15:00:00 TS -17.6650 43.1126 main 87 84 _________P____ -1 -17.6650 43.1126 TC 9 174
1905011S10048 1905 1 SI MM NOT_NAMED 1905-01-13 18:00:00 TS -18.1000 43.2000 main 84 64 _________O____ -1 -18.1000 43.2000 TC 9 165
1905011S10048 1905 1 SI MM NOT_NAMED 1905-01-13 21:00:00 TS -18.5500 43.3700 main 64 62 _________P____ -1 -18.5500 43.3700 TC 10 157
1905011S10048 1905 1 SI MM NOT_NAMED 1905-01-14 00:00:00 TS -19.0000 43.6000 main 63 47 _________O____ -1 -19.0000 43.6000 TC 10 154
1905011S10048 1905 1 SI MM NOT_NAMED 1905-01-14 03:00:00 TS -19.4575 43.8351 main 61 31 _________P____ -1 -19.4575 43.8351 TC 10 152
1905011S10048 1905 1 SI MM NOT_NAMED 1905-01-14 06:00:00 TS -19.9000 44.1000 main 33 0 _________O____ -1 -19.9000 44.1000 TC 10 148
1905011S10048 1905 1 SI MM NOT_NAMED 1905-01-14 09:00:00 TS -20.3150 44.4000 main 0 0 _________P____ -1 -20.3150 44.4000 TC 10 145
1905011S10048 1905 1 SI MM NOT_NAMED 1905-01-14 12:00:00 TS -20.7000 44.7000 main 0 0 _________O____ -1 -20.7000 44.7000 TC 9 145
1905011S10048 1905 1 SI MM NOT_NAMED 1905-01-14 15:00:00 TS -21.0574 44.9577 main 0 0 _________P____ -1 -21.0574 44.9577 TC 8 146
1905011S10048 1905 1 SI MM NOT_NAMED 1905-01-14 18:00:00 TS -21.4000 45.2000 main 0 0 _________O____ -1 -21.4000 45.2000 TC 8 147
1905011S10048 1905 1 SI MM NOT_NAMED 1905-01-14 21:00:00 TS -21.7273 45.4205 main 0 0 _________P____ -1 -21.7273 45.4205 TC 8 146
1905011S10048 1905 1 SI MM NOT_NAMED 1905-01-15 00:00:00 TS -22.1000 45.7000 main 0 0 _________O____ -1 -22.1000 45.7000 TC 11 143
1905011S10048 1905 1 SI MM NOT_NAMED 1905-01-15 03:00:00 TS -22.5851 46.1198 main 0 0 _________P____ -1 -22.5851 46.1198 TC 13 140
1905011S10048 1905 1 SI MM NOT_NAMED 1905-01-15 06:00:00 TS -23.1000 46.6000 main 0 0 _________O____ -1 -23.1000 46.6000 TC 13 139
1905011S10048 1905 1 SI MM NOT_NAMED 1905-01-15 09:00:00 TS -23.5574 47.0504 main 0 0 _________P____ -1 -23.5574 47.0504 TC 12 137
1905011S10048 1905 1 SI MM NOT_NAMED 1905-01-15 12:00:00 TS -24.0000 47.5000 main 0 0 _________O____ -1 -24.0000 47.5000 TC 12 138
1905011S10048 1905 1 SI MM NOT_NAMED 1905-01-15 15:00:00 TS -24.4573 47.9428 main 60 60 _________P____ -1 -24.4573 47.9428 TC 12 138
1905011S10048 1905 1 SI MM NOT_NAMED 1905-01-15 18:00:00 TS -24.9000 48.4000 main 119 119 _________O____ -1 -24.9000 48.4000 TC 12 135
1905011S10048 1905 1 SI MM NOT_NAMED 1905-01-15 21:00:00 TS -25.3104 48.8893 main 183 183 _________P____ -1 -25.3104 48.8893 TC 12 132
1905011S10048 1905 1 SI MM NOT_NAMED 1905-01-16 00:00:00 TS -25.7000 49.4000 main 243 _________O____ -1 -25.7000 49.4000 TC 12 130

About IBTrACS Database

This database is a web-friendly format of International Best Track Archive for Climate Stewardship (IBTrACS), a global best track data archive curated by NOAA dating back to 1842.

Updated: 2021-12-06